Text analysis for Dodi (dodigeorge2000)

Return to profile of Dodi (dodigeorge2000)

View texts not yet raced by Dodi (dodigeorge2000)

Sorted by best race

Rank Text Best WPM Overall Difficulty Relative Speed Text Length Races Average WPM Last race
1. Spring is the time of year when it is summer in the sun and ... 38.48 1.0871 -1.1129 80 1 38.48 2021-02-01
2. When everyone else was thinking it was time for bed, his min... 35.68 1.0317 -1.0920 120 1 35.68 2021-02-01
3. This day does not belong to one man but to all. Let us toget... 35.53 1.0518 -1.1192 122 1 35.53 2021-02-01
4. Our worst fears, like our greatest hopes, are not outside ou... 33.29 1.0614 -1.0666 150 1 33.29 2021-02-01
5. I don't want to talk about it! Every time I think about some... 32.68 1.0738 -1.1276 143 1 32.68 2021-02-01
6. There was no reason for me to stay in the real world any lon... 32.16 1.0663 -1.0874 187 1 32.16 2021-02-01
7. The highlander seemed to float through life very much the sa... 31.68 1.0620 -1.0887 141 1 31.68 2021-02-01
8. There can be no light without the dark, and so it is with ma... 31.44 0.9972 -1.0592 184 1 31.44 2021-02-01
9. These rappers don't know what to do, 'cause all I did was ac... 31.19 1.0042 -1.0404 176 1 31.19 2021-02-01
10. You can tell from the lines on her face, you can see that sh... 31.07 1.0650 -1.0982 147 1 31.07 2021-02-01
11. Is it really necessary to send that email? The more emails y... 31.01 1.0120 -1.0255 290 1 31.01 2021-02-01
12. You can have my isolation, you can have the hate that it bri... 30.70 1.0318 -1.0729 126 1 30.70 2021-02-01
13. So I walk into the sun. I thought you'd be there, but you co... 30.64 1.0276 -1.0699 139 1 30.64 2021-02-01
14. Under the lights when everything goes. Nowhere to hide when ... 30.60 1.0686 -1.0837 119 1 30.60 2021-02-01
15. Two years ago this property cost one million pounds. Today, ... 30.24 0.8289 -0.8339 304 1 30.24 2021-02-01
16. Our emotions cloud our perceptions. It's no wonder this libr... 30.07 1.0548 -1.0968 148 1 30.07 2021-02-01
17. I'll light the fire, you place the flowers in the vase that ... 30.06 1.0615 -1.0783 197 1 30.06 2021-02-01
18. Stab a sorry heart with your favorite finger. Paint the whol... 29.91 1.0270 -1.0037 255 1 29.91 2021-02-01
19. Haven't you ever happened to come across in a book some vagu... 29.54 1.0256 -1.0400 190 1 29.54 2021-02-01
20. I was never scared of dying alone until I knew what it was l... 29.53 1.0682 -1.0954 159 1 29.53 2021-02-01
21. Some might say that sunshine follows thunder, go and tell it... 29.51 1.0896 -1.1262 232 1 29.51 2021-02-01
22. Remembering you running soft through the night. You were big... 29.05 1.0863 -1.0640 210 1 29.05 2021-02-01
23. And I don't believe in the existence of angels but looking a... 29.04 0.9162 -0.9283 165 1 29.04 2021-02-01
24. Look, there's only one thing worse than being a loser. It's ... 28.87 1.0996 -1.1131 186 1 28.87 2021-02-01
25. Is it sweeter to exist only in the mind or to exist both in ... 28.82 1.0768 -1.0495 295 1 28.82 2021-02-01
26. Here we go, another night out. Waited all week just to get o... 28.78 1.0322 -1.0773 195 1 28.78 2021-02-01
27. They say, "Find a purpose in your life and live it." But, so... 28.74 1.0153 -1.0239 182 1 28.74 2021-02-01
28. Home will always be here unseen out of sight, where I disapp... 28.65 1.0066 -1.0413 155 1 28.65 2021-02-01
29. The term "barbarian" was created by the Greeks; it was origi... 28.63 0.9509 -0.9252 225 1 28.63 2021-02-01
30. I told him that you were really smart. And they'll figure it... 27.68 1.0257 -1.0931 154 1 27.68 2021-02-01
31. That's always seemed so ridiculous to me, that people want t... 27.32 1.0022 -1.0271 177 1 27.32 2021-02-01
32. Every craft and every investigation, and likewise every acti... 27.14 0.9711 -0.9848 176 1 27.14 2021-02-01
33. People go missing around here, they're gone for good. Outsid... 26.78 1.0185 -1.0663 167 1 26.78 2021-02-01
34. I know you're coming in the night like a thief, but I've had... 26.48 1.0045 -1.0197 226 1 26.48 2021-02-01